Time;durP1;ratioP1;P1;durP2;ratioP2;P2;SDS_P1;SDS_P2;PMS_P1;PMS_P2;Temp;Humidity;BMP_temperature;BMP_pressure;BME280_temperature;BME280_humidity;BME280_pressure;Samples;Min_cycle;Max_cycle;Signal;HPM_P1;HPM_P2
2022/07/27 00:02:15;;;;;;;;;;;28.00;42.30;;;;;;5002586;28;20012;-68
2022/07/27 00:04:41;;;;;;;;;;;28.00;42.30;;;;;;5004515;28;19917;-68
2022/07/27 00:07:06;;;;;;;;;;;28.00;42.30;;;;;;5001266;28;19928;-67
2022/07/27 00:09:32;;;;;;;;;;;28.00;42.30;;;;;;5002493;28;19918;-68
2022/07/27 00:11:57;;;;;;;;;;;28.00;42.40;;;;;;5001725;28;19956;-69
2022/07/27 00:14:22;;;;;;;;;;;28.00;42.40;;;;;;5003237;28;19917;-65
2022/07/27 00:16:48;;;;;;;;;;;28.00;42.40;;;;;;5004638;28;19987;-69
2022/07/27 00:19:13;;;;;;;;;;;28.00;42.50;;;;;;5004952;28;20236;-68
2022/07/27 00:21:39;;;;;;;;;;;27.90;42.40;;;;;;5000280;28;19918;-68
2022/07/27 00:24:04;;;;;;;;;;;28.00;42.60;;;;;;5003606;28;19927;-68
2022/07/27 00:26:30;;;;;;;;;;;28.00;42.50;;;;;;5000125;28;19921;-67
2022/07/27 00:28:55;;;;;;;;;;;28.00;42.60;;;;;;5002606;28;19976;-65
2022/07/27 00:31:21;;;;;;;;;;;27.90;42.50;;;;;;5002634;28;19968;-64
2022/07/27 00:33:46;;;;;;;;;;;27.90;42.50;;;;;;5003203;28;20578;-68
2022/07/27 00:36:12;;;;;;;;;;;27.90;42.50;;;;;;5000977;28;19917;-68
2022/07/27 00:38:38;;;;;;;;;;;27.90;42.60;;;;;;5001858;28;19914;-68
2022/07/27 00:41:03;;;;;;;;;;;27.90;42.60;;;;;;5003870;28;20011;-65
2022/07/27 00:43:29;;;;;;;;;;;27.90;42.60;;;;;;5001015;28;20395;-67
2022/07/27 00:45:54;;;;;;;;;;;27.90;42.60;;;;;;5000922;28;19918;-66
2022/07/27 00:48:20;;;;;;;;;;;27.90;42.60;;;;;;5003586;28;19928;-68
2022/07/27 00:50:45;;;;;;;;;;;27.90;42.70;;;;;;5003642;28;20033;-69
2022/07/27 00:53:11;;;;;;;;;;;27.90;42.70;;;;;;5010644;28;19917;-66
2022/07/27 00:55:38;;;;;;;;;;;27.90;42.70;;;;;;5001648;28;20451;-69
2022/07/27 00:58:07;;;;;;;;;;;27.90;42.70;;;;;;5002126;28;19924;-66
2022/07/27 01:00:33;;;;;;;;;;;27.90;42.70;;;;;;5001905;28;19921;-65
2022/07/27 01:02:58;;;;;;;;;;;27.90;42.70;;;;;;5001815;28;19917;-68
2022/07/27 01:05:24;;;;;;;;;;;27.80;42.70;;;;;;5000368;28;20055;-67
2022/07/27 01:07:50;;;;;;;;;;;27.90;42.80;;;;;;5009666;28;19964;-67
2022/07/27 01:10:16;;;;;;;;;;;27.90;42.80;;;;;;5001158;28;20450;-67
2022/07/27 01:12:43;;;;;;;;;;;27.80;42.70;;;;;;5002700;28;19944;-67
2022/07/27 01:15:09;;;;;;;;;;;27.90;42.80;;;;;;5002741;28;19986;-67
2022/07/27 01:17:34;;;;;;;;;;;27.90;42.80;;;;;;5003447;28;20278;-68
2022/07/27 01:20:00;;;;;;;;;;;27.90;43.40;;;;;;5001696;28;19917;-66
2022/07/27 01:22:25;;;;;;;;;;;27.80;42.80;;;;;;4999685;28;19952;-68
2022/07/27 01:24:51;;;;;;;;;;;27.80;42.80;;;;;;5008164;28;19924;-67
2022/07/27 01:27:16;;;;;;;;;;;27.80;42.80;;;;;;5008882;28;19917;-66
2022/07/27 01:29:42;;;;;;;;;;;27.80;42.80;;;;;;5001668;28;19921;-66
2022/07/27 01:32:08;;;;;;;;;;;27.80;42.80;;;;;;5000596;28;19944;-64
2022/07/27 01:34:33;;;;;;;;;;;27.80;42.80;;;;;;5010966;28;20428;-65
2022/07/27 01:37:02;;;;;;;;;;;27.80;42.90;;;;;;4999861;28;19921;-64
2022/07/27 01:39:28;;;;;;;;;;;27.80;42.90;;;;;;5007958;28;19913;-66
2022/07/27 01:41:54;;;;;;;;;;;27.80;42.90;;;;;;5001566;28;20393;-69
2022/07/27 01:44:19;;;;;;;;;;;27.80;42.90;;;;;;5002046;28;20003;-68
2022/07/27 01:46:45;;;;;;;;;;;27.80;42.90;;;;;;5002399;28;20422;-68
2022/07/27 01:49:10;;;;;;;;;;;27.80;42.90;;;;;;5002480;28;19932;-68
2022/07/27 01:51:36;;;;;;;;;;;27.80;43.00;;;;;;5005583;28;20043;-68
2022/07/27 01:54:01;;;;;;;;;;;27.80;43.00;;;;;;5007886;28;20349;-65
2022/07/27 01:56:27;;;;;;;;;;;27.80;43.00;;;;;;4997016;28;20074;-69
2022/07/27 01:58:53;;;;;;;;;;;27.80;43.00;;;;;;5000406;28;20376;-67
2022/07/27 02:01:19;;;;;;;;;;;27.80;43.00;;;;;;4999325;28;19972;-67
2022/07/27 02:03:45;;;;;;;;;;;27.80;43.00;;;;;;5000445;28;19917;-65
2022/07/27 02:06:10;;;;;;;;;;;27.80;43.00;;;;;;4998582;28;19922;-66
2022/07/27 02:08:35;;;;;;;;;;;27.80;43.10;;;;;;4998630;28;20012;-63
2022/07/27 02:13:46;;;;;;;;;;;27.70;43.10;;;;;;5001992;28;19999;-68
2022/07/27 02:16:15;;;;;;;;;;;27.80;43.10;;;;;;4999535;28;19932;-65
2022/07/27 02:18:40;;;;;;;;;;;27.80;43.10;;;;;;5000507;28;19936;-66
2022/07/27 02:21:06;;;;;;;;;;;27.70;43.00;;;;;;4997549;28;20354;-69
2022/07/27 02:23:32;;;;;;;;;;;27.70;43.10;;;;;;5000010;28;19983;-66
2022/07/27 02:25:57;;;;;;;;;;;27.70;43.10;;;;;;4999630;28;20005;-68
2022/07/27 02:28:23;;;;;;;;;;;27.70;43.10;;;;;;5001626;28;20001;-68
2022/07/27 02:30:49;;;;;;;;;;;27.70;43.10;;;;;;5006928;28;19991;-66
2022/07/27 02:33:15;;;;;;;;;;;27.70;43.10;;;;;;5004163;28;19913;-67
2022/07/27 02:35:41;;;;;;;;;;;27.70;43.10;;;;;;4997907;28;19918;-68
2022/07/27 02:38:06;;;;;;;;;;;27.70;43.20;;;;;;4999273;28;19917;-68
2022/07/27 02:40:32;;;;;;;;;;;27.70;43.20;;;;;;4999505;28;20509;-67
2022/07/27 02:42:57;;;;;;;;;;;27.70;43.20;;;;;;5001226;28;20201;-64
2022/07/27 02:45:23;;;;;;;;;;;27.70;43.20;;;;;;4998211;28;19917;-65
2022/07/27 02:47:48;;;;;;;;;;;27.70;43.20;;;;;;4999390;28;19949;-69
2022/07/27 02:50:14;;;;;;;;;;;27.70;43.30;;;;;;5004051;28;19921;-68
2022/07/27 02:52:39;;;;;;;;;;;27.70;43.20;;;;;;4997175;28;19921;-64
2022/07/27 02:55:05;;;;;;;;;;;27.70;43.20;;;;;;4999111;28;19956;-68
2022/07/27 02:57:33;;;;;;;;;;;27.70;43.30;;;;;;5006986;28;19925;-64
2022/07/27 02:59:59;;;;;;;;;;;27.70;43.30;;;;;;5000257;28;19917;-69
2022/07/27 03:02:24;;;;;;;;;;;27.70;43.30;;;;;;4997320;28;19922;-67
2022/07/27 03:04:50;;;;;;;;;;;27.70;43.30;;;;;;5000585;28;19922;-67
2022/07/27 03:07:15;;;;;;;;;;;27.60;43.30;;;;;;5007547;28;20004;-68
2022/07/27 03:09:41;;;;;;;;;;;27.70;43.30;;;;;;4997620;28;19929;-67
2022/07/27 03:12:06;;;;;;;;;;;27.70;43.30;;;;;;4998336;28;19972;-68
2022/07/27 03:14:32;;;;;;;;;;;27.70;43.30;;;;;;4998337;28;19917;-66
2022/07/27 03:16:57;;;;;;;;;;;27.70;43.30;;;;;;4999401;28;20004;-68
2022/07/27 03:19:23;;;;;;;;;;;27.70;43.30;;;;;;4999441;28;19917;-68
2022/07/27 03:21:48;;;;;;;;;;;27.70;43.30;;;;;;4998333;28;20282;-66
2022/07/27 03:24:14;;;;;;;;;;;27.60;43.30;;;;;;4999210;28;20340;-66
2022/07/27 03:26:39;;;;;;;;;;;27.60;43.30;;;;;;4998546;28;19921;-68
2022/07/27 03:29:05;;;;;;;;;;;27.60;43.40;;;;;;4996574;28;19940;-65
2022/07/27 03:31:30;;;;;;;;;;;27.70;43.50;;;;;;4999015;28;19925;-69
2022/07/27 03:33:56;;;;;;;;;;;27.70;42.00;;;;;;4998511;28;19917;-64
2022/07/27 03:36:21;;;;;;;;;;;27.60;41.10;;;;;;4998313;28;19917;-65
2022/07/27 03:38:47;;;;;;;;;;;27.60;40.80;;;;;;5007285;28;20004;-66
2022/07/27 03:41:12;;;;;;;;;;;27.60;40.50;;;;;;5005534;28;20332;-67
2022/07/27 03:43:38;;;;;;;;;;;27.50;40.20;;;;;;4997579;28;20024;-69
2022/07/27 03:46:03;;;;;;;;;;;27.50;39.50;;;;;;4997904;28;19917;-67
2022/07/27 03:48:29;;;;;;;;;;;27.40;40.10;;;;;;5003622;28;20630;-67
2022/07/27 03:50:54;;;;;;;;;;;27.30;40.00;;;;;;5004470;28;19924;-68
2022/07/27 03:53:20;;;;;;;;;;;27.30;39.70;;;;;;4998480;28;19964;-69
2022/07/27 03:55:48;;;;;;;;;;;27.20;39.90;;;;;;4996725;28;19917;-68
2022/07/27 03:58:14;;;;;;;;;;;27.20;40.00;;;;;;5000045;28;20353;-68
2022/07/27 04:00:40;;;;;;;;;;;27.10;40.00;;;;;;4999663;28;19924;-68
2022/07/27 04:03:05;;;;;;;;;;;27.10;40.10;;;;;;4998787;28;21024;-64
2022/07/27 04:05:31;;;;;;;;;;;27.00;40.00;;;;;;4998670;28;19918;-65
2022/07/27 04:07:56;;;;;;;;;;;27.00;40.20;;;;;;4995982;28;19910;-67
2022/07/27 04:10:23;;;;;;;;;;;27.00;40.50;;;;;;4997089;28;19921;-68
2022/07/27 04:12:48;;;;;;;;;;;27.00;40.50;;;;;;4999042;28;20080;-68
2022/07/27 04:15:13;;;;;;;;;;;26.90;40.60;;;;;;4999591;28;20079;-65
2022/07/27 04:17:39;;;;;;;;;;;26.90;40.90;;;;;;4999039;28;19929;-68
2022/07/27 04:20:05;;;;;;;;;;;26.90;41.00;;;;;;4998529;28;20000;-66
2022/07/27 04:22:31;;;;;;;;;;;26.80;40.90;;;;;;4995482;28;19965;-66
2022/07/27 04:24:56;;;;;;;;;;;26.90;41.00;;;;;;4996595;28;19945;-68
2022/07/27 04:27:22;;;;;;;;;;;26.80;40.90;;;;;;4995032;28;19993;-65
2022/07/27 04:29:47;;;;;;;;;;;26.80;41.00;;;;;;4997746;28;19969;-68
2022/07/27 04:32:13;;;;;;;;;;;26.70;41.00;;;;;;4997787;28;19921;-65
2022/07/27 04:34:38;;;;;;;;;;;26.70;41.00;;;;;;5000772;28;20015;-68
2022/07/27 04:37:04;;;;;;;;;;;26.70;41.10;;;;;;5003079;28;19924;-67
2022/07/27 04:39:30;;;;;;;;;;;26.70;41.20;;;;;;5001478;28;20361;-64
2022/07/27 04:41:55;;;;;;;;;;;26.70;41.20;;;;;;5010195;28;19921;-69
2022/07/27 04:44:21;;;;;;;;;;;26.60;41.20;;;;;;5001690;28;19914;-67
2022/07/27 04:46:46;;;;;;;;;;;26.60;41.30;;;;;;4999921;28;20510;-67
2022/07/27 04:49:12;;;;;;;;;;;26.60;41.40;;;;;;4999310;28;20338;-67
2022/07/27 04:51:40;;;;;;;;;;;26.60;41.60;;;;;;4999590;28;20035;-68
2022/07/27 04:54:06;;;;;;;;;;;26.60;41.60;;;;;;5000641;28;19917;-67
2022/07/27 04:56:31;;;;;;;;;;;26.60;41.50;;;;;;4999387;28;19925;-68
2022/07/27 04:58:57;;;;;;;;;;;26.60;41.50;;;;;;5000437;28;20390;-68
2022/07/27 05:01:24;;;;;;;;;;;26.50;41.60;;;;;;5002953;28;19961;-68
2022/07/27 05:03:49;;;;;;;;;;;26.50;41.70;;;;;;5009762;28;20856;-66
2022/07/27 05:06:16;;;;;;;;;;;26.50;41.90;;;;;;4997629;28;19993;-67
2022/07/27 05:08:41;;;;;;;;;;;26.50;41.90;;;;;;5000352;28;21024;-66
2022/07/27 05:11:07;;;;;;;;;;;26.40;41.80;;;;;;5005025;28;19924;-68
2022/07/27 05:13:32;;;;;;;;;;;26.40;42.00;;;;;;5000166;28;19980;-65
2022/07/27 05:15:58;;;;;;;;;;;26.40;42.00;;;;;;5005684;28;19913;-68
2022/07/27 05:18:24;;;;;;;;;;;26.40;42.00;;;;;;5002981;28;19924;-64
2022/07/27 05:20:49;;;;;;;;;;;26.40;42.10;;;;;;4999453;28;19996;-66
2022/07/27 05:23:15;;;;;;;;;;;26.40;42.20;;;;;;4997942;28;20008;-67
2022/07/27 05:25:41;;;;;;;;;;;26.40;42.30;;;;;;4999862;28;20027;-66
2022/07/27 05:28:06;;;;;;;;;;;26.40;42.30;;;;;;5007903;28;20054;-68
2022/07/27 05:30:32;;;;;;;;;;;26.40;42.80;;;;;;4999288;28;19961;-66
2022/07/27 05:32:57;;;;;;;;;;;26.40;42.40;;;;;;5000290;28;20366;-67
2022/07/27 05:35:23;;;;;;;;;;;26.40;42.40;;;;;;4998614;28;19914;-65
2022/07/27 05:37:48;;;;;;;;;;;26.40;42.40;;;;;;5000867;28;20270;-66
2022/07/27 05:40:14;;;;;;;;;;;26.40;42.40;;;;;;5000096;28;19922;-66
2022/07/27 05:42:43;;;;;;;;;;;26.40;42.50;;;;;;4998490;28;19917;-65
2022/07/27 05:45:09;;;;;;;;;;;26.40;42.50;;;;;;5001169;28;19953;-68
2022/07/27 05:47:34;;;;;;;;;;;26.40;42.60;;;;;;4999674;28;19996;-68
2022/07/27 05:50:00;;;;;;;;;;;26.40;42.60;;;;;;5007399;28;20028;-65
2022/07/27 05:52:25;;;;;;;;;;;26.40;42.60;;;;;;4998207;28;19918;-66
2022/07/27 05:54:51;;;;;;;;;;;26.40;42.60;;;;;;4999067;28;20226;-64
2022/07/27 05:57:16;;;;;;;;;;;26.40;42.60;;;;;;5000309;28;19921;-66
2022/07/27 05:59:42;;;;;;;;;;;26.40;42.70;;;;;;5000537;28;19997;-68
2022/07/27 06:02:07;;;;;;;;;;;26.40;42.70;;;;;;4999026;28;19924;-66
2022/07/27 06:04:33;;;;;;;;;;;26.50;42.80;;;;;;5000537;28;20273;-68
2022/07/27 06:09:43;;;;;;;;;;;26.40;42.80;;;;;;4999968;28;19956;-66
2022/07/27 06:12:08;;;;;;;;;;;26.40;42.80;;;;;;5000204;28;20642;-65
2022/07/27 06:14:34;;;;;;;;;;;26.40;42.80;;;;;;5015752;28;19921;-66
2022/07/27 06:16:59;;;;;;;;;;;26.40;42.90;;;;;;5000676;28;20610;-64
2022/07/27 06:19:25;;;;;;;;;;;26.40;42.90;;;;;;5001864;28;19917;-68
2022/07/27 06:21:50;;;;;;;;;;;26.40;42.90;;;;;;4998269;28;19921;-66
2022/07/27 06:24:16;;;;;;;;;;;26.40;42.90;;;;;;4997976;28;20737;-64
2022/07/27 06:26:42;;;;;;;;;;;26.40;43.00;;;;;;5000318;28;19978;-68
2022/07/27 06:29:08;;;;;;;;;;;26.40;43.00;;;;;;5014888;28;19918;-67
2022/07/27 06:31:33;;;;;;;;;;;26.40;43.00;;;;;;5007103;28;19922;-66
2022/07/27 06:33:59;;;;;;;;;;;26.40;43.00;;;;;;5001311;28;19914;-66
2022/07/27 06:36:24;;;;;;;;;;;26.40;43.00;;;;;;4997756;28;20867;-68
2022/07/27 06:38:50;;;;;;;;;;;26.40;43.10;;;;;;5009344;28;19929;-68
2022/07/27 06:41:15;;;;;;;;;;;26.40;43.10;;;;;;4998331;28;19985;-64
2022/07/27 06:43:41;;;;;;;;;;;26.40;43.00;;;;;;5000566;28;20393;-66
2022/07/27 06:46:11;;;;;;;;;;;26.40;43.10;;;;;;4998108;28;19967;-66
2022/07/27 06:48:37;;;;;;;;;;;26.40;43.10;;;;;;4999101;28;19964;-64
2022/07/27 06:51:02;;;;;;;;;;;26.40;43.10;;;;;;4998461;28;20398;-65
2022/07/27 06:53:28;;;;;;;;;;;26.40;43.10;;;;;;5000744;28;20067;-65
2022/07/27 06:55:53;;;;;;;;;;;26.40;43.10;;;;;;4996452;28;20017;-68
2022/07/27 06:58:19;;;;;;;;;;;26.40;43.20;;;;;;4998392;28;19920;-69
2022/07/27 07:00:44;;;;;;;;;;;26.40;43.20;;;;;;5000324;28;19918;-68
2022/07/27 07:03:10;;;;;;;;;;;26.40;43.20;;;;;;5000588;28;19921;-69
2022/07/27 07:05:43;;;;;;;;;;;26.40;43.20;;;;;;4997658;28;20015;-67
2022/07/27 07:08:10;;;;;;;;;;;26.40;43.20;;;;;;4998862;28;19936;-68
2022/07/27 07:10:40;;;;;;;;;;;26.40;43.20;;;;;;4999143;28;20382;-67
2022/07/27 07:13:06;;;;;;;;;;;26.40;43.20;;;;;;5014091;28;19913;-67
2022/07/27 07:15:31;;;;;;;;;;;26.50;43.30;;;;;;4997833;28;19924;-64
2022/07/27 07:17:57;;;;;;;;;;;26.40;43.20;;;;;;4999004;28;20345;-66
2022/07/27 07:20:22;;;;;;;;;;;26.40;43.20;;;;;;4997597;28;19914;-66
2022/07/27 07:22:48;;;;;;;;;;;26.50;43.30;;;;;;4999242;28;20668;-68
2022/07/27 07:25:13;;;;;;;;;;;26.50;43.30;;;;;;4997821;28;20004;-65
2022/07/27 07:27:39;;;;;;;;;;;26.50;43.30;;;;;;5000373;28;20281;-64
2022/07/27 07:30:05;;;;;;;;;;;26.50;43.30;;;;;;5004974;28;19921;-68
2022/07/27 07:32:30;;;;;;;;;;;26.50;43.30;;;;;;5001128;28;19922;-67
2022/07/27 07:34:56;;;;;;;;;;;26.50;43.40;;;;;;4998685;28;19925;-68
2022/07/27 07:37:21;;;;;;;;;;;26.50;43.40;;;;;;4996895;28;20031;-68
2022/07/27 07:39:47;;;;;;;;;;;26.50;43.30;;;;;;4998885;28;20349;-67
2022/07/27 07:42:13;;;;;;;;;;;26.50;43.40;;;;;;4998651;28;19919;-67
2022/07/27 07:44:38;;;;;;;;;;;26.50;43.40;;;;;;5000210;28;19917;-68
2022/07/27 07:47:04;;;;;;;;;;;26.50;43.40;;;;;;4999084;28;20345;-68
2022/07/27 07:49:29;;;;;;;;;;;26.50;43.90;;;;;;5000391;28;19921;-66
2022/07/27 07:51:55;;;;;;;;;;;26.50;43.40;;;;;;4999476;28;19921;-65
2022/07/27 07:54:21;;;;;;;;;;;26.50;43.40;;;;;;4999392;28;21394;-69
2022/07/27 07:56:46;;;;;;;;;;;26.50;43.40;;;;;;4997749;28;19959;-67
2022/07/27 07:59:12;;;;;;;;;;;26.50;43.40;;;;;;4999065;28;20340;-67
2022/07/27 08:01:38;;;;;;;;;;;26.50;43.40;;;;;;4997816;28;19940;-67
2022/07/27 08:04:03;;;;;;;;;;;26.50;43.30;;;;;;5008396;28;19977;-66
2022/07/27 08:06:29;;;;;;;;;;;26.50;43.30;;;;;;4997853;28;20250;-65
2022/07/27 08:08:55;;;;;;;;;;;26.50;43.30;;;;;;5012386;28;19970;-65
2022/07/27 08:11:21;;;;;;;;;;;26.50;43.30;;;;;;5001055;28;20242;-65
2022/07/27 08:13:47;;;;;;;;;;;26.50;43.30;;;;;;5009880;28;20012;-65
2022/07/27 08:16:12;;;;;;;;;;;26.50;43.30;;;;;;5003937;28;20383;-65
2022/07/27 08:18:38;;;;;;;;;;;26.50;43.30;;;;;;5004456;28;19971;-67
2022/07/27 08:21:03;;;;;;;;;;;26.50;43.30;;;;;;5001303;28;20491;-66
2022/07/27 08:23:30;;;;;;;;;;;26.50;43.40;;;;;;5001662;28;19917;-68
2022/07/27 08:25:56;;;;;;;;;;;26.60;43.40;;;;;;5002620;28;19976;-68
2022/07/27 08:28:22;;;;;;;;;;;26.60;43.40;;;;;;5013313;28;20004;-68
2022/07/27 08:30:47;;;;;;;;;;;26.60;43.40;;;;;;5003362;28;19996;-68
2022/07/27 08:33:13;;;;;;;;;;;26.60;43.50;;;;;;5001773;28;19921;-68
2022/07/27 08:35:38;;;;;;;;;;;26.60;43.50;;;;;;4999699;28;20385;-67
2022/07/27 08:38:05;;;;;;;;;;;26.60;43.50;;;;;;5000957;28;19918;-66
2022/07/27 08:40:30;;;;;;;;;;;26.60;43.50;;;;;;5002822;28;19924;-66
2022/07/27 08:42:56;;;;;;;;;;;26.60;43.50;;;;;;5003871;28;19921;-64
2022/07/27 08:45:23;;;;;;;;;;;26.60;43.50;;;;;;5001844;28;19914;-65
2022/07/27 08:47:48;;;;;;;;;;;26.50;43.40;;;;;;5008866;28;19936;-66
2022/07/27 08:50:24;;;;;;;;;;;26.50;43.50;;;;;;5010159;28;19921;-68
2022/07/27 08:52:50;;;;;;;;;;;26.60;43.50;;;;;;5002496;28;19949;-64
2022/07/27 08:55:15;;;;;;;;;;;26.60;43.50;;;;;;5010582;28;19971;-69
2022/07/27 08:57:41;;;;;;;;;;;26.50;43.50;;;;;;5001747;28;19917;-68
2022/07/27 09:00:07;;;;;;;;;;;26.50;43.50;;;;;;5002894;28;20100;-68
2022/07/27 09:02:33;;;;;;;;;;;26.60;43.50;;;;;;5001801;28;20403;-65
2022/07/27 09:04:59;;;;;;;;;;;26.60;43.60;;;;;;5002230;28;19939;-64
2022/07/27 09:07:26;;;;;;;;;;;26.60;43.60;;;;;;4998919;28;19924;-67
2022/07/27 09:09:51;;;;;;;;;;;26.50;43.50;;;;;;5000623;28;19924;-64
2022/07/27 09:12:17;;;;;;;;;;;26.60;43.60;;;;;;5003073;28;19909;-69
2022/07/27 09:14:42;;;;;;;;;;;26.60;43.60;;;;;;5003996;28;19923;-68
2022/07/27 09:17:26;;;;;;;;;;;26.60;43.60;;;;;;5000506;28;19918;-65
2022/07/27 09:19:56;;;;;;;;;;;26.50;43.50;;;;;;5001329;28;20523;-67
2022/07/27 09:22:51;;;;;;;;;;;26.60;43.60;;;;;;5000166;28;19967;-68
2022/07/27 09:25:32;;;;;;;;;;;26.60;43.60;;;;;;4998440;28;19992;-67
2022/07/27 09:27:58;;;;;;;;;;;26.60;43.70;;;;;;5000827;28;19917;-65
2022/07/27 09:30:24;;;;;;;;;;;26.60;43.60;;;;;;5009896;28;19944;-64
2022/07/27 09:32:54;;;;;;;;;;;26.60;43.60;;;;;;5002754;28;20473;-68
2022/07/27 09:35:24;;;;;;;;;;;26.60;43.60;;;;;;4999667;28;20088;-67
2022/07/27 09:37:49;;;;;;;;;;;26.60;43.60;;;;;;5001707;28;19965;-65
2022/07/27 09:40:16;;;;;;;;;;;26.60;43.60;;;;;;5001173;28;20655;-68
2022/07/27 09:42:42;;;;;;;;;;;26.60;43.60;;;;;;5011960;28;19914;-68
2022/07/27 09:45:26;;;;;;;;;;;26.60;43.70;;;;;;5001923;28;19920;-68
2022/07/27 09:47:52;;;;;;;;;;;26.60;43.60;;;;;;5001952;28;19975;-64
2022/07/27 09:50:19;;;;;;;;;;;26.60;43.60;;;;;;5001348;28;20012;-67
2022/07/27 09:52:45;;;;;;;;;;;26.60;43.60;;;;;;5002355;28;19921;-67
2022/07/27 09:55:10;;;;;;;;;;;26.60;43.60;;;;;;5000474;28;20058;-68
2022/07/27 09:57:49;;;;;;;;;;;26.60;43.60;;;;;;5001227;28;20058;-66
2022/07/27 10:00:15;;;;;;;;;;;26.60;43.70;;;;;;5000806;28;19913;-64
2022/07/27 10:02:42;;;;;;;;;;;26.70;43.70;;;;;;4999894;28;19921;-68
2022/07/27 10:05:08;;;;;;;;;;;26.60;43.60;;;;;;5012093;28;19945;-68
2022/07/27 10:07:33;;;;;;;;;;;26.60;43.60;;;;;;5000324;28;20704;-68
2022/07/27 10:10:01;;;;;;;;;;;26.70;43.70;;;;;;4999804;28;19995;-65
2022/07/27 10:12:30;;;;;;;;;;;26.60;43.70;;;;;;5009918;28;19920;-66
2022/07/27 10:14:56;;;;;;;;;;;26.60;43.70;;;;;;5000679;28;19918;-66
2022/07/27 10:17:22;;;;;;;;;;;26.60;43.70;;;;;;5001063;28;19975;-68
2022/07/27 10:19:50;;;;;;;;;;;26.70;43.70;;;;;;5011472;28;19913;-67
2022/07/27 10:22:36;;;;;;;;;;;26.70;43.70;;;;;;5009626;28;20482;-66
2022/07/27 10:25:01;;;;;;;;;;;26.70;43.80;;;;;;5006403;28;19917;-68
2022/07/27 10:27:27;;;;;;;;;;;26.70;43.80;;;;;;5000262;28;19975;-66
2022/07/27 10:29:53;;;;;;;;;;;26.70;43.80;;;;;;4999275;28;19917;-69
2022/07/27 10:32:29;;;;;;;;;;;26.70;43.70;;;;;;4997823;28;19917;-68
2022/07/27 10:34:55;;;;;;;;;;;26.70;43.80;;;;;;4999436;28;20375;-65
2022/07/27 10:37:28;;;;;;;;;;;26.70;43.80;;;;;;4997147;28;20008;-64
2022/07/27 10:42:41;;;;;;;;;;;26.70;43.80;;;;;;5000107;28;19920;-68
2022/07/27 10:45:07;;;;;;;;;;;26.70;43.80;;;;;;4998469;28;19924;-68
2022/07/27 10:47:32;;;;;;;;;;;26.70;44.30;;;;;;4999750;28;19913;-68
2022/07/27 10:50:16;;;;;;;;;;;26.70;43.80;;;;;;4999744;28;20373;-68
2022/07/27 10:52:44;;;;;;;;;;;26.70;43.80;;;;;;4996997;28;19920;-64
2022/07/27 10:55:28;;;;;;;;;;;26.70;43.80;;;;;;4998655;28;19917;-68
2022/07/27 10:57:55;;;;;;;;;;;26.70;43.80;;;;;;5011182;28;20385;-65
2022/07/27 11:00:40;;;;;;;;;;;26.70;43.80;;;;;;4998367;28;19928;-64
2022/07/27 11:03:06;;;;;;;;;;;26.70;43.80;;;;;;4999110;28;20282;-64
2022/07/27 11:05:31;;;;;;;;;;;26.70;43.80;;;;;;4996105;28;19917;-67
2022/07/27 11:07:57;;;;;;;;;;;26.70;43.80;;;;;;5008861;28;19913;-67
2022/07/27 11:10:23;;;;;;;;;;;26.70;43.80;;;;;;4998441;28;19923;-67
2022/07/27 11:12:52;;;;;;;;;;;26.70;43.80;;;;;;4999589;28;19997;-69
2022/07/27 11:15:20;;;;;;;;;;;26.70;43.80;;;;;;5007906;28;19920;-67
2022/07/27 11:17:49;;;;;;;;;;;26.70;43.90;;;;;;5005966;28;19917;-66
2022/07/27 11:20:20;;;;;;;;;;;26.80;43.90;;;;;;5001174;28;20289;-67
2022/07/27 11:22:45;;;;;;;;;;;26.80;43.90;;;;;;5000298;28;19921;-68
2022/07/27 11:25:11;;;;;;;;;;;26.80;43.90;;;;;;5000439;28;19923;-67
2022/07/27 11:27:46;;;;;;;;;;;26.80;43.90;;;;;;5000955;28;19917;-65
2022/07/27 11:30:25;;;;;;;;;;;26.80;43.90;;;;;;4998959;28;19914;-68
2022/07/27 11:32:51;;;;;;;;;;;26.80;43.90;;;;;;5000794;28;19917;-66
2022/07/27 11:35:17;;;;;;;;;;;26.80;43.90;;;;;;4997398;28;19920;-67
2022/07/27 11:37:55;;;;;;;;;;;26.80;43.90;;;;;;4998165;28;19921;-68
2022/07/27 11:40:21;;;;;;;;;;;26.80;44.00;;;;;;4999003;28;19924;-66
2022/07/27 11:42:49;;;;;;;;;;;26.80;43.90;;;;;;4998576;28;20285;-68
2022/07/27 11:45:26;;;;;;;;;;;26.80;44.00;;;;;;4997466;28;20757;-67
2022/07/27 11:47:55;;;;;;;;;;;26.80;43.90;;;;;;4998339;28;20019;-64
2022/07/27 11:50:21;;;;;;;;;;;26.80;44.00;;;;;;4999082;28;20435;-67
2022/07/27 11:52:54;;;;;;;;;;;26.80;44.00;;;;;;4997557;28;20050;-69
2022/07/27 11:55:19;;;;;;;;;;;26.80;44.00;;;;;;4999080;28;20012;-66
2022/07/27 11:57:45;;;;;;;;;;;26.80;44.00;;;;;;5000871;28;20000;-66
2022/07/27 12:00:10;;;;;;;;;;;26.80;44.00;;;;;;4998358;28;19917;-68
2022/07/27 12:02:36;;;;;;;;;;;26.80;44.00;;;;;;4994736;28;20001;-64
2022/07/27 12:05:08;;;;;;;;;;;26.80;44.00;;;;;;4996246;28;19925;-66
2022/07/27 12:07:35;;;;;;;;;;;26.80;44.00;;;;;;4995921;28;20066;-69
2022/07/27 12:10:02;;;;;;;;;;;26.80;44.00;;;;;;4996838;28;19977;-69
2022/07/27 12:12:29;;;;;;;;;;;26.80;44.00;;;;;;4998496;28;19917;-68
2022/07/27 12:14:56;;;;;;;;;;;26.80;44.00;;;;;;4997954;28;19913;-66
2022/07/27 12:17:24;;;;;;;;;;;26.80;44.00;;;;;;5003796;28;20620;-68
2022/07/27 12:20:05;;;;;;;;;;;26.80;44.00;;;;;;4997263;28;19918;-67
2022/07/27 12:22:49;;;;;;;;;;;26.80;44.00;;;;;;5001370;28;19945;-68
2022/07/27 12:25:15;;;;;;;;;;;26.80;44.00;;;;;;5005121;28;19929;-67
2022/07/27 12:27:51;;;;;;;;;;;26.80;44.00;;;;;;4997936;28;19947;-65
2022/07/27 12:30:18;;;;;;;;;;;26.80;44.00;;;;;;4995780;28;19960;-65
2022/07/27 12:32:44;;;;;;;;;;;26.80;44.00;;;;;;4997333;28;19936;-67
2022/07/27 12:35:21;;;;;;;;;;;26.80;44.50;;;;;;4995048;28;20290;-67
2022/07/27 12:37:46;;;;;;;;;;;26.90;44.10;;;;;;4997022;28;20520;-68
2022/07/27 12:40:13;;;;;;;;;;;26.90;44.10;;;;;;5001788;28;19961;-66
2022/07/27 12:42:38;;;;;;;;;;;26.80;44.00;;;;;;4997673;28;19913;-66
2022/07/27 12:45:11;;;;;;;;;;;26.80;44.00;;;;;;4998958;28;19944;-67
2022/07/27 12:47:39;;;;;;;;;;;26.90;44.10;;;;;;4998301;28;19924;-67
2022/07/27 12:50:09;;;;;;;;;;;26.90;44.10;;;;;;4999191;28;19928;-66
2022/07/27 12:52:37;;;;;;;;;;;26.80;44.00;;;;;;4997373;28;19997;-69
2022/07/27 12:55:03;;;;;;;;;;;26.90;44.10;;;;;;4999874;28;20356;-66
2022/07/27 12:57:28;;;;;;;;;;;26.90;44.10;;;;;;5002032;28;19918;-69
2022/07/27 12:59:54;;;;;;;;;;;26.90;44.10;;;;;;5005408;28;19940;-65
2022/07/27 13:02:19;;;;;;;;;;;26.90;44.10;;;;;;5002290;28;19921;-68
2022/07/27 13:04:46;;;;;;;;;;;26.90;44.10;;;;;;4999758;28;19924;-66
2022/07/27 13:07:13;;;;;;;;;;;26.90;44.10;;;;;;5000895;28;20301;-65
2022/07/27 13:09:38;;;;;;;;;;;26.90;44.10;;;;;;5002989;28;19969;-68
2022/07/27 13:12:04;;;;;;;;;;;26.90;44.10;;;;;;5000622;28;19953;-65
2022/07/27 13:14:29;;;;;;;;;;;26.90;44.10;;;;;;5003561;28;19913;-65
2022/07/27 13:16:55;;;;;;;;;;;26.90;44.10;;;;;;5002814;28;20166;-66
2022/07/27 13:19:20;;;;;;;;;;;26.90;44.10;;;;;;5002719;28;19924;-67
2022/07/27 13:21:46;;;;;;;;;;;26.90;44.10;;;;;;5000723;28;19917;-66
2022/07/27 13:24:11;;;;;;;;;;;26.90;44.10;;;;;;5010932;28;20341;-65
2022/07/27 13:26:37;;;;;;;;;;;26.90;44.10;;;;;;5000742;28;19999;-65
2022/07/27 13:29:02;;;;;;;;;;;26.90;44.10;;;;;;5007188;28;19921;-68
2022/07/27 13:31:28;;;;;;;;;;;26.90;44.10;;;;;;5000272;28;20173;-69
2022/07/27 13:33:53;;;;;;;;;;;26.90;44.10;;;;;;5001692;28;20717;-69
2022/07/27 13:36:19;;;;;;;;;;;26.90;44.10;;;;;;4998315;28;19960;-68
2022/07/27 13:38:44;;;;;;;;;;;26.90;44.10;;;;;;5001453;28;20369;-68
2022/07/27 13:41:10;;;;;;;;;;;26.90;44.10;;;;;;5000650;28;19921;-68
2022/07/27 13:43:36;;;;;;;;;;;26.90;44.20;;;;;;5003016;28;19914;-66
2022/07/27 13:46:02;;;;;;;;;;;26.90;44.20;;;;;;5002133;28;20027;-66
2022/07/27 13:48:27;;;;;;;;;;;26.90;44.10;;;;;;5011794;28;19913;-66
2022/07/27 13:50:53;;;;;;;;;;;26.90;44.10;;;;;;4999741;28;19972;-66
2022/07/27 13:53:18;;;;;;;;;;;26.90;44.20;;;;;;4999434;28;19913;-67
2022/07/27 13:55:44;;;;;;;;;;;26.90;44.10;;;;;;5010359;28;20571;-69
2022/07/27 13:58:12;;;;;;;;;;;26.90;44.10;;;;;;5011604;28;20305;-68
2022/07/27 14:00:38;;;;;;;;;;;26.90;44.20;;;;;;5002125;28;20366;-68
2022/07/27 14:03:04;;;;;;;;;;;26.90;44.10;;;;;;5000030;28;19917;-66
2022/07/27 14:05:30;;;;;;;;;;;26.90;44.10;;;;;;4998611;28;19925;-69
2022/07/27 14:07:56;;;;;;;;;;;26.90;44.10;;;;;;5003257;28;19921;-68
2022/07/27 14:10:30;;;;;;;;;;;26.90;44.10;;;;;;5002360;28;20292;-68
2022/07/27 14:13:03;;;;;;;;;;;26.90;44.10;;;;;;5002365;28;20011;-66
2022/07/27 14:15:29;;;;;;;;;;;27.00;44.20;;;;;;4998918;28;19917;-64
2022/07/27 14:17:54;;;;;;;;;;;27.00;44.20;;;;;;5007763;28;19936;-67
2022/07/27 14:20:19;;;;;;;;;;;27.00;44.20;;;;;;5003026;28;19999;-69
2022/07/27 14:22:45;;;;;;;;;;;27.00;44.20;;;;;;4999838;28;20007;-67